Time;durP1;ratioP1;P1;durP2;ratioP2;P2;SDS_P1;SDS_P2;PMS_P1;PMS_P2;Temp;Humidity;BMP_temperature;BMP_pressure;BME280_temperature;BME280_humidity;BME280_pressure;Samples;Min_cycle;Max_cycle;Signal;HPM_P1;HPM_P2
2023/04/20 00:00:47;;;;;;;;;;;;;;;6.36;44.63;102258.88;4986989;28;1161;-77
2023/04/20 00:03:13;;;;;;;;;;;;;;;6.34;44.37;102254.72;4985833;28;1295;-78
2023/04/20 00:05:38;;;;;;;;;;;;;;;6.31;45.16;102250.53;4984863;28;1200;-79
2023/04/20 00:08:03;;;;;;;;;;;;;;;6.27;44.94;102251.56;5002725;28;1319;-77
2023/04/20 00:10:29;;;;;;;;;;;;;;;6.27;45.58;102259.28;5002540;28;1286;-78
2023/04/20 00:12:54;;;;;;;;;;;;;;;6.25;45.29;102250.78;4989448;28;1874;-78
2023/04/20 00:15:19;;;;;;;;;;;;;;;6.22;45.78;102248.31;4986077;28;1393;-77
2023/04/20 00:17:45;;;;;;;;;;;;;;;6.20;46.36;102241.56;4998335;28;1228;-78
2023/04/20 00:20:11;;;;;;;;;;;;;;;6.17;46.18;102245.09;4985783;28;1071;-78
2023/04/20 00:22:37;;;;;;;;;;;;;;;6.11;45.96;102233.28;5000968;28;1256;-77
2023/04/20 00:25:02;;;;;;;;;;;;;;;6.07;46.14;102233.47;5001529;28;1172;-78
2023/04/20 00:27:27;;;;;;;;;;;;;;;6.05;46.26;102224.97;4992342;28;1164;-78
2023/04/20 00:29:52;;;;;;;;;;;;;;;6.04;46.76;102229.28;4986572;28;1451;-78
2023/04/20 00:32:18;;;;;;;;;;;;;;;5.96;45.82;102220.19;4984487;28;1894;-78
2023/04/20 00:34:43;;;;;;;;;;;;;;;5.93;47.09;102215.16;5000512;28;1323;-78
2023/04/20 00:37:08;;;;;;;;;;;;;;;5.86;47.71;102212.81;4994673;28;1267;-78
2023/04/20 00:39:33;;;;;;;;;;;;;;;5.75;47.94;102211.56;4981301;28;1089;-77
2023/04/20 00:42:03;;;;;;;;;;;;;;;5.68;47.92;102200.66;5001966;28;1366;-78
2023/04/20 00:44:28;;;;;;;;;;;;;;;5.61;48.01;102194.06;4985023;28;1362;-78
2023/04/20 00:46:55;;;;;;;;;;;;;;;5.58;48.83;102189.03;4985563;28;1354;-78
2023/04/20 00:49:20;;;;;;;;;;;;;;;5.51;48.34;102179.91;5001485;28;1171;-78
2023/04/20 00:51:45;;;;;;;;;;;;;;;5.45;49.46;102175.81;4985705;28;1907;-77
2023/04/20 00:54:11;;;;;;;;;;;;;;;5.42;49.58;102162.22;4987212;28;1093;-78
2023/04/20 00:56:37;;;;;;;;;;;;;;;5.39;48.95;102162.31;4984763;28;1279;-78
2023/04/20 00:59:02;;;;;;;;;;;;;;;5.37;49.69;102164.13;4986114;28;1459;-77
2023/04/20 01:01:27;;;;;;;;;;;;;;;5.35;49.89;102158.22;4986277;28;1109;-78
2023/04/20 01:03:53;;;;;;;;;;;;;;;5.37;49.83;102143.56;4985030;28;1045;-78
2023/04/20 01:06:18;;;;;;;;;;;;;;;5.39;49.66;102146.88;4989662;28;1336;-77
2023/04/20 01:08:44;;;;;;;;;;;;;;;5.41;49.40;102145.13;4988093;28;1250;-77
2023/04/20 01:11:09;;;;;;;;;;;;;;;5.37;49.40;102138.41;4984219;28;1957;-77
2023/04/20 01:13:37;;;;;;;;;;;;;;;5.36;49.33;102135.00;4985410;28;1083;-79
2023/04/20 01:16:02;;;;;;;;;;;;;;;5.35;49.70;102135.06;4985882;28;1291;-78
2023/04/20 01:18:27;;;;;;;;;;;;;;;5.35;49.63;102129.91;4987894;28;1337;-78
2023/04/20 01:20:52;;;;;;;;;;;;;;;5.33;50.70;102130.81;5001566;28;1292;-78
2023/04/20 01:23:18;;;;;;;;;;;;;;;5.32;50.64;102126.53;4987327;28;1412;-78
2023/04/20 01:25:43;;;;;;;;;;;;;;;5.30;50.95;102118.06;4987999;28;1323;-78
2023/04/20 01:28:08;;;;;;;;;;;;;;;5.27;50.85;102113.03;4987855;28;1503;-79
2023/04/20 01:30:33;;;;;;;;;;;;;;;5.23;50.96;102106.34;4986023;28;1144;-77
2023/04/20 01:32:59;;;;;;;;;;;;;;;5.20;50.86;102109.03;4989846;28;1894;-79
2023/04/20 01:35:24;;;;;;;;;;;;;;;5.17;51.62;102101.44;4984579;28;1334;-79
2023/04/20 01:37:49;;;;;;;;;;;;;;;5.15;51.59;102092.09;4987017;28;1496;-77
2023/04/20 01:40:15;;;;;;;;;;;;;;;5.08;51.85;102096.63;4987138;28;1123;-78
2023/04/20 01:42:40;;;;;;;;;;;;;;;5.03;52.56;102088.25;4990615;28;1558;-76
2023/04/20 01:45:05;;;;;;;;;;;;;;;5.02;51.85;102091.72;5003388;28;1212;-78
2023/04/20 01:47:31;;;;;;;;;;;;;;;5.03;51.62;102088.25;4981328;28;1465;-78
2023/04/20 01:49:56;;;;;;;;;;;;;;;5.01;52.97;102087.50;4993453;28;1190;-77
2023/04/20 01:52:21;;;;;;;;;;;;;;;4.98;53.70;102080.72;4987148;28;1902;-78
2023/04/20 01:54:46;;;;;;;;;;;;;;;4.98;53.78;102072.16;4985451;28;1162;-78
2023/04/20 01:57:12;;;;;;;;;;;;;;;4.98;54.65;102069.59;4985850;28;1534;-77
2023/04/20 01:59:37;;;;;;;;;;;;;;;4.98;55.29;102059.31;4991501;28;1280;-79
2023/04/20 02:02:02;;;;;;;;;;;;;;;5.01;54.79;102054.06;4986226;28;1611;-77
2023/04/20 02:04:27;;;;;;;;;;;;;;;5.06;55.36;102052.16;4987442;28;1138;-77
2023/04/20 02:06:52;;;;;;;;;;;;;;;5.09;56.38;102051.19;4989575;28;1748;-78
2023/04/20 02:09:18;;;;;;;;;;;;;;;5.15;55.88;102050.94;4988881;28;2140;-78
2023/04/20 02:11:43;;;;;;;;;;;;;;;5.21;56.39;102045.56;4989667;28;1890;-77
2023/04/20 02:14:08;;;;;;;;;;;;;;;5.25;55.74;102053.09;4988146;28;1265;-78
2023/04/20 02:16:34;;;;;;;;;;;;;;;5.26;56.29;102049.63;5009475;28;1283;-77
2023/04/20 02:18:59;;;;;;;;;;;;;;;5.28;56.64;102042.69;4991374;28;1397;-77
2023/04/20 02:21:25;;;;;;;;;;;;;;;5.30;56.99;102051.19;4989638;28;1499;-77
2023/04/20 02:23:50;;;;;;;;;;;;;;;5.30;57.27;102043.47;4990773;28;1279;-77
2023/04/20 02:26:15;;;;;;;;;;;;;;;5.30;57.89;102038.31;4990342;28;1232;-78
2023/04/20 02:28:41;;;;;;;;;;;;;;;5.29;58.31;102034.06;4995038;28;1526;-78
2023/04/20 02:31:06;;;;;;;;;;;;;;;5.26;58.93;102034.19;4991409;28;2025;-77
2023/04/20 02:33:31;;;;;;;;;;;;;;;5.26;58.17;102033.34;4986450;28;1166;-77
2023/04/20 02:35:56;;;;;;;;;;;;;;;5.26;58.47;102033.34;5001673;28;1442;-78
2023/04/20 02:38:22;;;;;;;;;;;;;;;5.22;58.93;102024.94;5003590;28;1353;-77
2023/04/20 02:40:47;;;;;;;;;;;;;;;5.21;59.37;102024.97;4992057;28;1146;-78
2023/04/20 02:43:12;;;;;;;;;;;;;;;5.19;59.15;102022.47;4984524;28;1200;-77
2023/04/20 02:45:37;;;;;;;;;;;;;;;5.18;59.39;102020.81;4991388;28;1204;-77
2023/04/20 02:48:03;;;;;;;;;;;;;;;5.17;59.55;102011.44;4985106;28;1169;-78
2023/04/20 02:50:28;;;;;;;;;;;;;;;5.13;60.01;102020.16;4988548;28;1226;-78
2023/04/20 02:52:53;;;;;;;;;;;;;;;5.13;60.12;102012.44;4997932;28;1894;-78
2023/04/20 02:55:18;;;;;;;;;;;;;;;5.13;61.24;102017.56;4985079;28;1129;-77
2023/04/20 02:57:44;;;;;;;;;;;;;;;5.13;60.31;102012.44;5001873;28;1470;-77
2023/04/20 03:00:12;;;;;;;;;;;;;;;5.15;60.79;102005.47;4988261;28;1065;-77
2023/04/20 03:02:37;;;;;;;;;;;;;;;5.15;60.94;102005.47;4986878;28;1173;-77
2023/04/20 03:05:03;;;;;;;;;;;;;;;5.16;61.25;102002.03;4988149;28;1231;-77
2023/04/20 03:07:28;;;;;;;;;;;;;;;5.18;61.11;102007.94;4988494;28;1176;-77
2023/04/20 03:09:53;;;;;;;;;;;;;;;5.20;61.85;102003.56;5006141;28;1227;-77
2023/04/20 03:12:18;;;;;;;;;;;;;;;5.22;61.15;101990.66;4987966;28;1918;-77
2023/04/20 03:14:44;;;;;;;;;;;;;;;5.25;60.90;101996.50;4991228;28;1288;-77
2023/04/20 03:17:09;;;;;;;;;;;;;;;5.27;61.31;101984.41;4990963;28;1292;-78
2023/04/20 03:19:35;;;;;;;;;;;;;;;5.30;61.94;101994.59;4995936;28;1053;-77
2023/04/20 03:22:00;;;;;;;;;;;;;;;5.35;61.69;101988.44;4988082;28;1291;-78
2023/04/20 03:24:26;;;;;;;;;;;;;;;5.38;61.49;101971.09;4988107;28;1294;-77
2023/04/20 03:26:51;;;;;;;;;;;;;;;5.44;61.70;101970.03;4987277;28;1088;-77
2023/04/20 03:29:16;;;;;;;;;;;;;;;5.46;61.60;101968.25;4991524;28;1492;-79
2023/04/20 03:31:41;;;;;;;;;;;;;;;5.50;62.50;101974.91;4988189;28;1886;-77
2023/04/20 03:34:06;;;;;;;;;;;;;;;5.54;63.18;101971.31;4990307;28;1286;-77
2023/04/20 03:36:32;;;;;;;;;;;;;;;5.57;63.24;101971.19;4989211;28;1517;-78
2023/04/20 03:38:57;;;;;;;;;;;;;;;5.59;63.22;101969.38;5004137;28;1329;-77
2023/04/20 03:41:22;;;;;;;;;;;;;;;5.60;62.73;101971.06;4986687;28;1133;-77
2023/04/20 03:43:47;;;;;;;;;;;;;;;5.62;63.43;101964.13;5010060;28;1279;-77
2023/04/20 03:46:13;;;;;;;;;;;;;;;5.64;63.77;101957.16;4992988;28;1093;-77
2023/04/20 03:48:38;;;;;;;;;;;;;;;5.65;63.75;101951.09;4999263;28;1350;-77
2023/04/20 03:51:03;;;;;;;;;;;;;;;5.64;63.31;101956.34;4987863;28;1944;-77
2023/04/20 03:53:28;;;;;;;;;;;;;;;5.67;63.37;101956.19;4987765;28;1087;-78
2023/04/20 03:55:54;;;;;;;;;;;;;;;5.67;64.28;101957.00;4989001;28;1118;-77
2023/04/20 03:58:20;;;;;;;;;;;;;;;5.68;63.17;101960.41;4992359;28;1385;-77
2023/04/20 04:00:46;;;;;;;;;;;;;;;5.66;64.09;101955.34;4988580;28;1142;-77
2023/04/20 04:03:11;;;;;;;;;;;;;;;5.69;64.14;101954.41;4994862;28;1309;-78
2023/04/20 04:05:36;;;;;;;;;;;;;;;5.70;63.83;101946.59;4985008;28;1264;-77
2023/04/20 04:08:01;;;;;;;;;;;;;;;5.71;64.31;101952.59;4994541;28;1079;-77
2023/04/20 04:10:26;;;;;;;;;;;;;;;5.70;64.74;101945.78;4988675;28;1280;-76
2023/04/20 04:12:52;;;;;;;;;;;;;;;5.70;64.79;101946.59;4986550;28;1926;-77
2023/04/20 04:15:18;;;;;;;;;;;;;;;5.71;64.90;101948.28;5000128;28;1354;-77
2023/04/20 04:17:43;;;;;;;;;;;;;;;5.71;64.86;101935.41;4988592;28;1464;-77
2023/04/20 04:20:09;;;;;;;;;;;;;;;5.73;64.89;101938.72;4984350;28;1213;-77
2023/04/20 04:22:34;;;;;;;;;;;;;;;5.73;64.69;101936.16;4988782;28;1218;-78
2023/04/20 04:24:59;;;;;;;;;;;;;;;5.74;64.99;101932.72;4985889;28;1041;-76
2023/04/20 04:27:24;;;;;;;;;;;;;;;5.75;65.74;101929.22;4986924;28;1196;-77
2023/04/20 04:29:50;;;;;;;;;;;;;;;5.77;64.50;101922.25;5003359;28;1456;-77
2023/04/20 04:32:15;;;;;;;;;;;;;;;5.80;65.48;101917.00;4986866;28;1923;-76
2023/04/20 04:34:43;;;;;;;;;;;;;;;5.81;64.80;101898.06;4983523;28;1525;-77
2023/04/20 04:37:08;;;;;;;;;;;;;;;5.81;65.07;101904.94;4994103;28;1200;-78
2023/04/20 04:39:33;;;;;;;;;;;;;;;5.82;65.66;101907.44;4998489;28;1164;-76
2023/04/20 04:41:59;;;;;;;;;;;;;;;5.82;65.58;101904.03;4984606;28;956;-77
2023/04/20 04:44:24;;;;;;;;;;;;;;;5.84;65.85;101902.22;4984039;28;1014;-76
2023/04/20 04:46:50;;;;;;;;;;;;;;;5.84;65.25;101908.19;5001480;28;1382;-76
2023/04/20 04:49:15;;;;;;;;;;;;;;;5.84;66.09;101897.91;4984658;28;1312;-77
2023/04/20 04:51:40;;;;;;;;;;;;;;;5.86;65.45;101903.84;4986962;28;1894;-77
2023/04/20 04:54:05;;;;;;;;;;;;;;;5.88;65.56;101902.94;4999397;28;1291;-78
2023/04/20 04:56:31;;;;;;;;;;;;;;;5.89;66.08;101912.31;4982838;28;1169;-77
2023/04/20 04:58:56;;;;;;;;;;;;;;;5.89;66.62;101915.72;4983076;28;1041;-78
2023/04/20 05:01:21;;;;;;;;;;;;;;;5.91;66.14;101907.94;4987913;28;2065;-78
2023/04/20 05:03:46;;;;;;;;;;;;;;;5.93;66.37;101906.19;4991627;28;1477;-77
2023/04/20 05:06:12;;;;;;;;;;;;;;;5.93;66.52;101909.59;4979414;28;1315;-78
2023/04/20 05:08:37;;;;;;;;;;;;;;;5.92;67.35;101905.34;4985678;28;1645;-78
2023/04/20 05:11:02;;;;;;;;;;;;;;;5.94;66.98;101905.25;5001355;28;1894;-78
2023/04/20 05:13:27;;;;;;;;;;;;;;;5.94;67.30;101897.53;5009533;28;1259;-79
2023/04/20 05:15:53;;;;;;;;;;;;;;;5.95;67.14;101894.06;4989393;28;1422;-78
2023/04/20 05:18:18;;;;;;;;;;;;;;;5.97;67.36;101897.41;4986437;28;1093;-78
2023/04/20 05:20:43;;;;;;;;;;;;;;;5.98;67.59;101894.75;4989253;28;1178;-78
2023/04/20 05:23:08;;;;;;;;;;;;;;;5.98;67.74;101893.94;4994283;28;1180;-80
2023/04/20 05:25:33;;;;;;;;;;;;;;;5.99;67.99;101885.28;5004936;28;1378;-78
2023/04/20 05:27:59;;;;;;;;;;;;;;;6.01;68.84;101893.78;4982902;28;1308;-78
2023/04/20 05:30:24;;;;;;;;;;;;;;;6.03;68.40;101885.09;4993205;28;1424;-78
2023/04/20 05:32:49;;;;;;;;;;;;;;;6.06;68.39;101886.69;5000572;28;1954;-78
2023/04/20 05:35:14;;;;;;;;;;;;;;;6.10;68.49;101903.66;4984971;28;1468;-79
2023/04/20 05:37:40;;;;;;;;;;;;;;;6.12;68.21;101891.56;4988139;28;1146;-78
2023/04/20 05:40:06;;;;;;;;;;;;;;;6.12;68.79;101897.53;4991764;28;1301;-78
2023/04/20 05:42:31;;;;;;;;;;;;;;;6.13;67.98;101885.50;4986928;28;1271;-78
2023/04/20 05:44:56;;;;;;;;;;;;;;;6.18;68.58;101878.38;5002889;28;1544;-80
2023/04/20 05:47:21;;;;;;;;;;;;;;;6.20;68.62;101881.75;4986103;28;1164;-78
2023/04/20 05:49:47;;;;;;;;;;;;;;;6.23;68.29;101873.84;4992685;28;1435;-78
2023/04/20 05:52:12;;;;;;;;;;;;;;;6.24;68.41;101870.38;4995331;28;1965;-79
2023/04/20 05:54:37;;;;;;;;;;;;;;;6.26;68.70;101873.72;4991646;28;1120;-78
2023/04/20 05:57:04;;;;;;;;;;;;;;;6.28;69.01;101869.31;5006353;28;1344;-78
2023/04/20 05:59:29;;;;;;;;;;;;;;;6.30;68.43;101864.94;4987227;28;1464;-79
2023/04/20 06:01:55;;;;;;;;;;;;;;;6.30;69.12;101864.94;4992546;28;1227;-78
2023/04/20 06:04:20;;;;;;;;;;;;;;;6.32;67.83;101868.28;4990714;28;1226;-78
2023/04/20 06:06:45;;;;;;;;;;;;;;;6.34;68.55;101861.31;4991904;28;1404;-78
2023/04/20 06:09:10;;;;;;;;;;;;;;;6.37;68.74;101866.34;4991942;28;1280;-78
2023/04/20 06:11:36;;;;;;;;;;;;;;;6.41;69.10;101858.44;4990120;28;1886;-78
2023/04/20 06:14:01;;;;;;;;;;;;;;;6.44;68.57;101856.56;5011310;28;1319;-78
2023/04/20 06:16:26;;;;;;;;;;;;;;;6.49;68.53;101854.59;4984949;28;1193;-77
2023/04/20 06:18:51;;;;;;;;;;;;;;;6.54;68.74;101862.94;5006636;28;1307;-78
2023/04/20 06:21:17;;;;;;;;;;;;;;;6.60;68.20;101866.97;4995235;28;1145;-78
2023/04/20 06:23:43;;;;;;;;;;;;;;;6.67;68.26;101863.19;4994165;28;1127;-78
2023/04/20 06:26:09;;;;;;;;;;;;;;;6.74;67.88;101859.41;4989288;28;1265;-78
2023/04/20 06:28:35;;;;;;;;;;;;;;;6.82;67.73;101867.56;4986968;28;1236;-79
2023/04/20 06:31:00;;;;;;;;;;;;;;;6.82;67.02;101859.84;4993430;28;1902;-80
2023/04/20 06:33:25;;;;;;;;;;;;;;;6.86;67.17;101852.81;4994841;28;1193;-78
2023/04/20 06:35:53;;;;;;;;;;;;;;;6.87;66.69;101850.13;4992034;28;1343;-78
2023/04/20 06:38:18;;;;;;;;;;;;;;;6.92;67.52;101852.50;4981595;28;1003;-79
2023/04/20 06:40:44;;;;;;;;;;;;;;;6.97;66.83;101854.84;4989576;28;1257;-78
2023/04/20 06:43:09;;;;;;;;;;;;;;;6.99;66.34;101845.28;4987026;28;1259;-78
2023/04/20 06:45:34;;;;;;;;;;;;;;;7.00;64.70;101859.88;4989369;28;1085;-80
2023/04/20 06:47:59;;;;;;;;;;;;;;;7.03;64.75;101854.53;4989343;28;1192;-79
2023/04/20 06:50:25;;;;;;;;;;;;;;;7.08;64.76;101847.41;4987531;28;1216;-78
2023/04/20 06:52:50;;;;;;;;;;;;;;;7.17;64.28;101849.53;4985319;28;1895;-78
2023/04/20 06:55:16;;;;;;;;;;;;;;;7.21;64.29;101861.34;4987301;28;2048;-76
2023/04/20 06:57:42;;;;;;;;;;;;;;;7.25;64.42;101855.13;5007265;28;1177;-79
2023/04/20 07:00:08;;;;;;;;;;;;;;;7.28;64.02;101854.94;4986638;28;1022;-77
2023/04/20 07:02:46;;;;;;;;;;;;;;;7.30;64.31;101853.16;4979167;28;1571;-78
2023/04/20 07:05:12;;;;;;;;;;;;;;;7.34;63.79;101849.50;4987609;28;1280;-78
2023/04/20 07:07:37;;;;;;;;;;;;;;;7.32;63.94;101861.63;4984340;28;1237;-78
2023/04/20 07:10:03;;;;;;;;;;;;;;;7.33;63.99;101858.13;5005710;28;1388;-77
2023/04/20 07:12:28;;;;;;;;;;;;;;;7.29;63.15;101858.41;4991840;28;1934;-77
2023/04/20 07:14:53;;;;;;;;;;;;;;;7.26;62.95;101856.78;5006737;28;1475;-76
2023/04/20 07:17:19;;;;;;;;;;;;;;;7.23;63.21;101861.28;4983821;28;1129;-77
2023/04/20 07:19:44;;;;;;;;;;;;;;;7.15;63.37;101857.34;5008910;28;1439;-78
2023/04/20 07:22:09;;;;;;;;;;;;;;;7.16;63.54;101855.59;4980958;28;1236;-77
2023/04/20 07:24:34;;;;;;;;;;;;;;;7.17;64.72;101857.28;4991392;28;1486;-77
2023/04/20 07:27:00;;;;;;;;;;;;;;;7.21;64.18;101869.09;4992073;28;1176;-77
2023/04/20 07:29:25;;;;;;;;;;;;;;;7.24;64.69;101865.53;4988870;28;1221;-77
2023/04/20 07:31:50;;;;;;;;;;;;;;;7.22;64.61;101854.44;4988470;28;1943;-78
2023/04/20 07:34:15;;;;;;;;;;;;;;;7.20;65.09;101857.09;4986664;28;1491;-78
2023/04/20 07:36:41;;;;;;;;;;;;;;;7.22;66.45;101849.28;4989648;28;1193;-78
2023/04/20 07:39:06;;;;;;;;;;;;;;;7.31;64.74;101854.81;4989510;28;1125;-77
2023/04/20 07:41:31;;;;;;;;;;;;;;;7.30;65.39;101853.16;4984728;28;1214;-76
2023/04/20 07:43:56;;;;;;;;;;;;;;;7.31;65.70;101864.31;4988387;28;1106;-77
2023/04/20 07:46:22;;;;;;;;;;;;;;;7.29;64.63;101861.81;4980655;28;1034;-78
2023/04/20 07:48:48;;;;;;;;;;;;;;;7.29;65.21;101856.66;4986333;28;1204;-78
2023/04/20 07:51:13;;;;;;;;;;;;;;;7.20;64.92;101857.09;4989107;28;1968;-80
2023/04/20 07:53:38;;;;;;;;;;;;;;;7.25;65.75;101860.28;4984098;28;1320;-79
2023/04/20 07:56:03;;;;;;;;;;;;;;;7.30;65.73;101863.47;5003051;28;1422;-79
2023/04/20 07:58:28;;;;;;;;;;;;;;;7.35;64.77;101850.34;4989366;28;1231;-79
2023/04/20 08:00:54;;;;;;;;;;;;;;;7.48;64.99;101850.53;4990779;28;1106;-79
2023/04/20 08:03:19;;;;;;;;;;;;;;;7.61;65.60;101843.78;4990587;28;1206;-79
2023/04/20 08:05:45;;;;;;;;;;;;;;;7.68;64.97;101843.41;5001714;28;1305;-81
2023/04/20 08:08:10;;;;;;;;;;;;;;;7.67;65.48;101838.31;4996849;28;1215;-79
2023/04/20 08:10:36;;;;;;;;;;;;;;;7.72;65.69;101834.56;4987807;28;1202;-79
2023/04/20 08:13:01;;;;;;;;;;;;;;;7.78;65.38;101838.56;4989057;28;1910;-78
2023/04/20 08:15:26;;;;;;;;;;;;;;;7.81;64.49;101833.25;4993588;28;1120;-78
2023/04/20 08:17:51;;;;;;;;;;;;;;;7.86;64.40;101830.44;4981972;28;1366;-80
2023/04/20 08:20:17;;;;;;;;;;;;;;;7.82;64.64;101829.75;4984169;28;1070;-79
2023/04/20 08:22:42;;;;;;;;;;;;;;;7.79;64.75;101827.31;4987814;28;1237;-78
2023/04/20 08:25:10;;;;;;;;;;;;;;;7.82;65.18;101824.59;4986227;28;1283;-78
2023/04/20 08:27:50;;;;;;;;;;;;;;;7.82;64.84;101834.09;4981906;28;1221;-78
2023/04/20 08:30:31;;;;;;;;;;;;;;;7.76;65.30;101824.91;4984380;28;1266;-80
2023/04/20 08:32:57;;;;;;;;;;;;;;;7.68;64.63;101824.47;4997517;28;1886;-78
2023/04/20 08:35:25;;;;;;;;;;;;;;;7.72;65.20;101828.56;4979750;28;1082;-79
2023/04/20 08:38:05;;;;;;;;;;;;;;;7.73;65.33;101830.22;4984258;28;998;-79
2023/04/20 08:43:44;;;;;;;;;;;;;;;7.72;64.96;101820.81;4984932;28;1362;-79
2023/04/20 08:46:09;;;;;;;;;;;;;;;7.77;65.19;101811.09;4985556;28;1328;-76
2023/04/20 08:48:35;;;;;;;;;;;;;;;7.76;65.20;101809.41;4984733;28;1205;-76
2023/04/20 08:51:01;;;;;;;;;;;;;;;7.83;64.85;101810.75;4987289;28;1160;-75
2023/04/20 08:53:26;;;;;;;;;;;;;;;7.86;65.62;101800.25;4982778;28;2011;-77
2023/04/20 08:55:51;;;;;;;;;;;;;;;7.90;65.22;101812.06;4989625;28;1081;-76
2023/04/20 08:58:17;;;;;;;;;;;;;;;7.82;65.20;101806.50;4987161;28;1360;-79
2023/04/20 09:00:48;;;;;;;;;;;;;;;7.82;65.43;101803.91;4984811;28;1174;-76
2023/04/20 09:03:13;;;;;;;;;;;;;;;7.82;65.63;101800.50;4987354;28;1280;-76
2023/04/20 09:05:38;;;;;;;;;;;;;;;7.84;65.72;101794.34;4988133;28;1138;-76
2023/04/20 09:08:04;;;;;;;;;;;;;;;7.89;65.21;101800.09;4990452;28;1447;-76
2023/04/20 09:10:50;;;;;;;;;;;;;;;7.92;65.10;101810.25;4986995;28;1057;-77
2023/04/20 09:13:21;;;;;;;;;;;;;;;7.88;65.92;101808.75;4983873;28;1894;-78
2023/04/20 09:15:47;;;;;;;;;;;;;;;7.89;65.29;101810.41;4986339;28;1302;-76
2023/04/20 09:18:13;;;;;;;;;;;;;;;7.89;65.90;101800.09;4982306;28;1122;-77
2023/04/20 09:20:39;;;;;;;;;;;;;;;7.88;65.20;101798.41;4984815;28;1336;-78
2023/04/20 09:23:14;;;;;;;;;;;;;;;7.91;65.87;101798.28;4985873;28;1181;-80
2023/04/20 09:25:43;;;;;;;;;;;;;;;7.89;66.96;101794.91;4998936;28;1155;-78
2023/04/20 09:28:09;;;;;;;;;;;;;;;7.89;65.83;101792.34;4989257;28;1398;-78
2023/04/20 09:30:41;;;;;;;;;;;;;;;7.87;65.64;101791.59;5002856;28;1349;-78
2023/04/20 09:33:09;;;;;;;;;;;;;;;7.84;66.21;101788.34;4992982;28;1969;-77
2023/04/20 09:35:35;;;;;;;;;;;;;;;7.83;65.77;101800.41;5007561;28;1453;-80
2023/04/20 09:38:00;;;;;;;;;;;;;;;7.83;65.87;101800.41;4992312;28;1099;-80
2023/04/20 09:40:26;;;;;;;;;;;;;;;7.81;66.13;101804.84;5003935;28;1290;-80
2023/04/20 09:42:57;;;;;;;;;;;;;;;7.84;66.37;101802.06;4991580;28;1204;-80
2023/04/20 09:45:24;;;;;;;;;;;;;;;7.83;66.00;101805.59;4990731;28;1257;-80
2023/04/20 09:47:50;;;;;;;;;;;;;;;7.79;65.76;101801.50;4995376;28;1172;-79
2023/04/20 09:50:15;;;;;;;;;;;;;;;7.74;66.40;101795.75;4984628;28;900;-80
2023/04/20 09:52:41;;;;;;;;;;;;;;;7.78;66.82;101796.41;4989896;28;1966;-80
2023/04/20 09:55:09;;;;;;;;;;;;;;;7.84;66.82;101802.06;5004958;28;1291;-81
2023/04/20 09:57:35;;;;;;;;;;;;;;;7.83;66.77;101797.84;4991007;28;1097;-80
2023/04/20 10:00:00;;;;;;;;;;;;;;;7.82;67.04;101788.44;4988751;28;1097;-80
2023/04/20 10:02:26;;;;;;;;;;;;;;;7.83;66.04;101787.50;4987212;28;1090;-79
2023/04/20 10:04:55;;;;;;;;;;;;;;;7.74;66.36;101785.41;4989609;28;1084;-80
2023/04/20 10:07:39;;;;;;;;;;;;;;;7.73;66.88;101786.34;4985181;28;1283;-81
2023/04/20 10:10:04;;;;;;;;;;;;;;;7.73;66.76;101781.16;5005227;28;1254;-81
2023/04/20 10:12:29;;;;;;;;;;;;;;;7.76;66.55;101781.00;4987965;28;1934;-80
2023/04/20 10:14:56;;;;;;;;;;;;;;;7.77;67.06;101787.84;4988465;28;1167;-80
2023/04/20 10:17:28;;;;;;;;;;;;;;;7.81;67.34;101786.75;5004445;28;1300;-80
2023/04/20 10:19:53;;;;;;;;;;;;;;;7.88;67.20;101777.75;4988164;28;1482;-79
2023/04/20 10:22:32;;;;;;;;;;;;;;;7.92;66.72;101773.28;4990428;28;1094;-81
2023/04/20 10:25:01;;;;;;;;;;;;;;;8.08;66.53;101780.97;5005420;28;1219;-81
2023/04/20 10:27:27;;;;;;;;;;;;;;;8.07;65.92;101766.41;5001158;28;1359;-80
2023/04/20 10:29:52;;;;;;;;;;;;;;;8.07;66.31;101766.41;4990194;28;996;-80
2023/04/20 10:32:27;;;;;;;;;;;;;;;8.14;67.15;101772.88;4989415;28;1883;-80
2023/04/20 10:35:03;;;;;;;;;;;;;;;8.17;65.99;101763.22;4990205;28;1086;-80
2023/04/20 10:37:28;;;;;;;;;;;;;;;8.24;64.98;101763.69;5005281;28;1284;-80
2023/04/20 10:39:53;;;;;;;;;;;;;;;8.28;64.85;101774.69;4989015;28;1216;-81
2023/04/20 10:42:19;;;;;;;;;;;;;;;8.29;64.94;101761.69;5006400;28;1228;-81
2023/04/20 10:44:48;;;;;;;;;;;;;;;8.24;64.60;101759.34;4990954;28;1147;-80
2023/04/20 10:47:13;;;;;;;;;;;;;;;8.14;65.09;101757.38;4987645;28;1074;-81
2023/04/20 10:49:39;;;;;;;;;;;;;;;8.08;64.37;101752.56;4989117;28;1940;-81
2023/04/20 10:52:04;;;;;;;;;;;;;;;8.09;66.19;101749.09;4990019;28;1974;-82
2023/04/20 10:54:35;;;;;;;;;;;;;;;8.18;66.79;101753.72;5004441;28;1129;-82
2023/04/20 10:57:01;;;;;;;;;;;;;;;8.25;66.26;101755.84;4991711;28;971;-81
2023/04/20 10:59:27;;;;;;;;;;;;;;;8.29;65.40;101755.69;4989505;28;1056;-81
2023/04/20 11:01:54;;;;;;;;;;;;;;;8.27;65.27;101753.19;4988909;28;1073;-80
2023/04/20 11:04:27;;;;;;;;;;;;;;;8.24;64.05;101748.19;5005055;28;1229;-81
2023/04/20 11:06:54;;;;;;;;;;;;;;;8.25;64.29;101740.34;5007646;28;1502;-81
2023/04/20 11:09:22;;;;;;;;;;;;;;;8.38;64.47;101748.28;4987784;28;1216;-82
2023/04/20 11:12:00;;;;;;;;;;;;;;;8.36;64.20;101744.94;4992809;28;1960;-82
2023/04/20 11:14:26;;;;;;;;;;;;;;;8.31;63.77;101734.00;4989738;28;1194;-82
2023/04/20 11:16:52;;;;;;;;;;;;;;;8.46;64.05;101743.47;4994521;28;1141;-81
2023/04/20 11:19:24;;;;;;;;;;;;;;;8.38;62.83;101732.78;4988675;28;1145;-81
2023/04/20 11:21:50;;;;;;;;;;;;;;;8.51;62.87;101736.28;4990279;28;1204;-81
2023/04/20 11:24:18;;;;;;;;;;;;;;;8.59;62.94;101732.44;4981386;28;1164;-81
2023/04/20 11:26:44;;;;;;;;;;;;;;;8.56;62.55;101727.44;4987041;28;1313;-82
2023/04/20 11:29:09;;;;;;;;;;;;;;;8.67;62.45;101714.72;4989526;28;1203;-82
2023/04/20 11:31:35;;;;;;;;;;;;;;;8.62;62.74;101716.75;4992112;28;1914;-82
2023/04/20 11:34:00;;;;;;;;;;;;;;;8.69;62.65;101718.03;4992775;28;1332;-81
2023/04/20 11:36:28;;;;;;;;;;;;;;;8.72;63.06;101713.53;4989086;28;1221;-80
2023/04/20 11:38:54;;;;;;;;;;;;;;;8.77;62.24;101700.28;5002928;28;1354;-81
2023/04/20 11:41:20;;;;;;;;;;;;;;;8.72;62.59;101697.19;4985451;28;1057;-82
2023/04/20 11:43:45;;;;;;;;;;;;;;;8.70;62.53;101709.34;4985060;28;1268;-81
2023/04/20 11:46:20;;;;;;;;;;;;;;;8.65;61.59;101701.03;4996649;28;2205;-81
2023/04/20 11:48:46;;;;;;;;;;;;;;;8.58;62.13;101699.75;4981873;28;1378;-81
2023/04/20 11:51:11;;;;;;;;;;;;;;;8.60;62.14;101708.22;4983346;28;1906;-82
2023/04/20 11:53:40;;;;;;;;;;;;;;;8.60;62.76;101697.88;4988591;28;1160;-81
2023/04/20 11:56:05;;;;;;;;;;;;;;;8.64;62.60;101696.78;4990787;28;1274;-82
2023/04/20 11:58:31;;;;;;;;;;;;;;;8.70;63.26;101693.84;4990862;28;1124;-82
2023/04/20 12:00:56;;;;;;;;;;;;;;;8.83;62.01;101699.09;4989153;28;1192;-81
2023/04/20 12:03:21;;;;;;;;;;;;;;;8.89;62.80;101694.41;4985259;28;1166;-81
2023/04/20 12:05:46;;;;;;;;;;;;;;;8.94;62.04;101688.94;5002448;28;1282;-81
2023/04/20 12:08:11;;;;;;;;;;;;;;;8.95;61.65;101688.88;4990101;28;1320;-81
2023/04/20 12:10:38;;;;;;;;;;;;;;;9.00;60.97;101691.13;4990424;28;1371;-82
2023/04/20 12:13:04;;;;;;;;;;;;;;;8.85;60.93;101682.56;4986273;28;1953;-81
2023/04/20 12:15:29;;;;;;;;;;;;;;;8.85;61.32;101698.09;4985455;28;1278;-81
2023/04/20 12:18:02;;;;;;;;;;;;;;;8.84;60.52;101690.44;5075783;27;1390;-77
2023/04/20 12:20:27;;;;;;;;;;;;;;;8.82;61.81;101682.75;5078522;28;1170;-77
2023/04/20 12:22:52;;;;;;;;;;;;;;;8.89;61.23;101686.66;5079150;28;1198;-77
2023/04/20 12:25:18;;;;;;;;;;;;;;;8.85;62.09;101690.34;5079294;28;1096;-77
2023/04/20 12:27:44;;;;;;;;;;;;;;;8.84;61.67;101683.50;5075110;28;1104;-77
2023/04/20 12:30:09;;;;;;;;;;;;;;;8.83;61.47;101684.44;5077617;28;1165;-77
2023/04/20 12:32:34;;;;;;;;;;;;;;;8.80;61.33;101676.03;5083157;28;1163;-77
2023/04/20 12:35:00;;;;;;;;;;;;;;;8.76;61.67;101667.59;5082327;28;1402;-78
2023/04/20 12:37:26;;;;;;;;;;;;;;;8.82;61.73;101685.34;5070684;28;1905;-77
2023/04/20 12:39:51;;;;;;;;;;;;;;;8.80;62.07;101679.44;5079842;28;1157;-77
2023/04/20 12:42:16;;;;;;;;;;;;;;;8.85;61.28;101682.56;5077048;28;1091;-77
2023/04/20 12:44:41;;;;;;;;;;;;;;;8.83;61.38;101689.59;5079731;28;1071;-77
2023/04/20 12:47:07;;;;;;;;;;;;;;;8.85;61.82;101672.22;5076558;28;1305;-78
2023/04/20 12:49:32;;;;;;;;;;;;;;;8.92;61.71;101678.69;5076037;28;980;-77
2023/04/20 12:51:57;;;;;;;;;;;;;;;8.93;61.11;101675.16;5079441;28;1171;-78
2023/04/20 12:54:22;;;;;;;;;;;;;;;8.84;60.72;101664.56;5079363;28;2381;-77